Time;durP1;ratioP1;P1;durP2;ratioP2;P2;SDS_P1;SDS_P2;PMS_P1;PMS_P2;Temp;Humidity;BMP_temperature;BMP_pressure;BME280_temperature;BME280_humidity;BME280_pressure;Samples;Min_cycle;Max_cycle;Signal;HPM_P1;HPM_P2
2024/02/05 00:00:09;;;;;;;7.40;2.77;;;;;;;5.47;87.83;99024.63;5113104;27;20199;-55
2024/02/05 00:02:38;;;;;;;4.53;2.17;;;;;;;5.45;88.29;99035.69;5117496;27;20215;-56
2024/02/05 00:05:07;;;;;;;4.53;2.57;;;;;;;5.45;88.28;99025.47;5116135;27;20312;-57
2024/02/05 00:07:35;;;;;;;6.07;2.73;;;;;;;5.44;87.88;99023.78;5114201;27;20263;-57
2024/02/05 00:10:05;;;;;;;4.17;2.33;;;;;;;5.43;88.56;99006.78;5116081;27;20286;-57
2024/02/05 00:12:33;;;;;;;6.73;2.43;;;;;;;5.42;89.12;99007.66;5114084;28;20672;-57
2024/02/05 00:15:04;;;;;;;7.33;2.73;;;;;;;5.45;89.05;99011.03;5111753;27;20199;-60
2024/02/05 00:17:32;;;;;;;6.83;2.53;;;;;;;5.44;89.01;99004.19;5116412;27;20235;-57
2024/02/05 00:20:00;;;;;;;5.87;2.47;;;;;;;5.43;88.62;98999.97;5116846;27;20196;-58
2024/02/05 00:22:28;;;;;;;4.90;2.80;;;;;;;5.45;88.57;98992.25;5116325;27;20564;-56
2024/02/05 00:24:56;;;;;;;5.97;2.67;;;;;;;5.44;88.85;99001.63;5116001;27;20224;-56
2024/02/05 00:27:24;;;;;;;5.10;2.50;;;;;;;5.44;89.73;99004.19;5107166;28;20287;-56
2024/02/05 00:29:52;;;;;;;6.53;2.40;;;;;;;5.45;89.53;99005.03;5113492;27;20196;-56
2024/02/05 00:32:21;;;;;;;4.77;2.40;;;;;;;5.46;89.98;98996.53;5107999;27;20200;-56
2024/02/05 00:34:49;;;;;;;3.70;2.50;;;;;;;5.45;90.08;99002.47;5113043;27;20608;-56
2024/02/05 00:37:18;;;;;;;5.77;2.50;;;;;;;5.42;90.27;98985.50;5112293;28;20197;-57
2024/02/05 00:39:46;;;;;;;7.17;2.87;;;;;;;5.36;90.65;99000.00;5107103;27;20288;-61
2024/02/05 00:42:13;;;;;;;3.97;2.70;;;;;;;5.31;91.58;98987.28;5126463;27;20646;-53
2024/02/05 00:44:41;;;;;;;5.57;2.40;;;;;;;5.31;91.89;98979.63;5113743;27;20220;-54
2024/02/05 00:47:09;;;;;;;6.57;2.67;;;;;;;5.31;91.63;98977.91;5106509;28;20211;-55
2024/02/05 00:49:39;;;;;;;5.93;3.07;;;;;;;5.32;91.83;98979.59;5115694;27;20208;-54
2024/02/05 00:52:07;;;;;;;7.47;3.10;;;;;;;5.35;91.16;99000.88;5111887;27;20531;-52
2024/02/05 00:54:35;;;;;;;5.80;2.50;;;;;;;5.34;90.96;98982.16;5109837;27;20544;-54
2024/02/05 00:57:03;;;;;;;6.23;2.87;;;;;;;5.35;91.53;98968.53;5111402;27;20206;-55
2024/02/05 00:59:31;;;;;;;3.57;2.30;;;;;;;5.32;92.13;98969.38;5116536;27;20519;-54
2024/02/05 01:01:59;;;;;;;5.73;2.80;;;;;;;5.35;91.32;98978.75;5112254;27;20199;-55
2024/02/05 01:04:30;;;;;;;4.63;2.13;;;;;;;5.36;91.90;98970.22;5110487;27;20246;-54
2024/02/05 01:07:00;;;;;;;6.73;2.87;;;;;;;5.39;90.71;98965.06;5106682;28;20203;-54
2024/02/05 01:09:28;;;;;;;5.03;2.57;;;;;;;5.42;91.09;98977.00;5117201;27;20209;-53
2024/02/05 01:11:55;;;;;;;8.57;2.50;;;;;;;5.44;90.85;98959.94;5112115;27;20214;-55
2024/02/05 01:14:23;;;;;;;3.63;2.30;;;;;;;5.44;90.85;98975.25;5108830;28;20200;-52
2024/02/05 01:16:52;;;;;;;5.03;2.40;;;;;;;5.47;89.72;98976.06;5115485;27;20231;-53
2024/02/05 01:19:20;;;;;;;4.97;2.13;;;;;;;5.48;89.58;98969.25;5111348;27;20196;-54
2024/02/05 01:21:49;;;;;;;7.33;2.37;;;;;;;5.51;89.52;98959.00;5109696;28;20229;-54
2024/02/05 01:24:18;;;;;;;6.57;2.87;;;;;;;5.50;88.41;98955.63;5110955;27;20696;-55
2024/02/05 01:26:46;;;;;;;6.33;2.53;;;;;;;5.54;88.65;98961.53;5111020;28;20211;-55
2024/02/05 01:29:14;;;;;;;3.40;2.20;;;;;;;5.57;88.07;98958.97;5112493;28;20673;-54
2024/02/05 01:31:43;;;;;;;3.63;2.20;;;;;;;5.61;87.83;98962.34;5104741;28;20295;-54
2024/02/05 01:34:11;;;;;;;3.27;2.10;;;;;;;5.64;87.48;98955.50;5116552;28;20287;-54
2024/02/05 01:36:39;;;;;;;5.80;2.10;;;;;;;5.66;87.18;98948.66;5113736;28;20199;-56
2024/02/05 01:39:07;;;;;;;4.30;2.13;;;;;;;5.67;87.45;98952.94;5111886;28;20796;-57
2024/02/05 01:41:36;;;;;;;4.80;2.20;;;;;;;5.67;86.80;98940.16;5109960;28;20228;-55
2024/02/05 01:44:05;;;;;;;4.83;2.93;;;;;;;5.68;86.72;98936.72;5110712;28;20211;-54
2024/02/05 01:46:35;;;;;;;7.40;2.90;;;;;;;5.69;86.57;98933.28;5111078;28;20245;-55
2024/02/05 01:49:06;;;;;;;5.07;2.23;;;;;;;5.69;87.06;98927.34;5112694;28;20196;-53
2024/02/05 01:51:40;;;;;;;3.27;2.10;;;;;;;5.64;87.07;98926.56;5120876;28;20222;-53
2024/02/05 01:54:10;;;;;;;3.97;2.10;;;;;;;5.61;87.28;98917.19;5116545;28;20653;-55
2024/02/05 01:56:40;;;;;;;3.13;2.20;;;;;;;5.62;87.46;98920.59;5113328;28;20637;-54
2024/02/05 01:59:08;;;;;;;6.87;2.50;;;;;;;5.65;87.24;98907.78;5115154;28;20204;-59
2024/02/05 02:01:39;;;;;;;4.00;2.20;;;;;;;5.65;86.93;98913.75;5109397;28;20205;-56
2024/02/05 02:04:08;;;;;;;2.93;2.40;;;;;;;5.66;87.37;98912.03;5110838;28;20655;-57
2024/02/05 02:06:37;;;;;;;5.80;2.40;;;;;;;5.66;87.10;98901.81;5116335;28;20679;-55
2024/02/05 02:09:10;;;;;;;3.37;2.10;;;;;;;5.65;86.69;98906.09;5111430;28;20632;-57
2024/02/05 02:11:41;;;;;;;4.50;2.40;;;;;;;5.64;86.57;98904.41;5111497;28;20207;-55
2024/02/05 02:14:09;;;;;;;5.87;1.77;;;;;;;5.64;86.79;98906.94;5114361;28;20647;-54
2024/02/05 02:16:38;;;;;;;5.50;2.73;;;;;;;5.69;86.39;98917.97;5114920;28;20259;-54
2024/02/05 02:19:16;;;;;;;3.60;2.10;;;;;;;5.71;85.78;98902.63;5106843;28;20205;-59
2024/02/05 02:21:50;;;;;;;2.30;1.80;;;;;;;5.74;86.23;98885.56;5111784;28;20237;-52
2024/02/05 02:24:19;;;;;;;4.17;2.10;;;;;;;5.75;86.29;98915.34;5123423;27;20673;-51
2024/02/05 02:26:47;;;;;;;2.43;1.90;;;;;;;5.74;86.06;98898.34;5113867;27;20208;-55
2024/02/05 02:29:16;;;;;;;5.63;2.30;;;;;;;5.75;86.34;98902.56;5117337;27;20196;-56
2024/02/05 02:31:46;;;;;;;3.03;2.17;;;;;;;5.73;86.63;98901.72;5120279;27;20286;-56
2024/02/05 02:34:24;;;;;;;3.13;1.90;;;;;;;5.71;86.82;98898.34;5109774;27;20207;-53
2024/02/05 02:37:00;;;;;;;4.83;2.10;;;;;;;5.72;87.44;98896.66;5113992;27;20210;-55
2024/02/05 02:39:33;;;;;;;3.63;2.30;;;;;;;5.72;87.76;98871.94;5111516;28;20208;-54
2024/02/05 02:42:02;;;;;;;3.93;2.47;;;;;;;5.71;88.43;98872.81;5103972;27;20213;-53
2024/02/05 02:44:31;;;;;;;2.93;2.17;;;;;;;5.67;89.12;98883.94;5115439;27;20223;-53
2024/02/05 02:47:01;;;;;;;3.73;2.13;;;;;;;5.59;89.85;98870.34;5114666;27;20264;-53
2024/02/05 02:49:29;;;;;;;3.70;2.30;;;;;;;5.57;90.44;98862.72;5115090;27;20203;-55
2024/02/05 02:51:57;;;;;;;4.00;2.17;;;;;;;5.56;90.66;98863.59;5114506;28;20673;-56
2024/02/05 02:54:26;;;;;;;4.23;2.33;;;;;;;5.55;90.25;98863.59;5110271;27;20724;-54
2024/02/05 02:56:55;;;;;;;3.50;2.20;;;;;;;5.53;90.73;98861.06;5119738;27;20232;-53
2024/02/05 02:59:23;;;;;;;6.20;2.00;;;;;;;5.52;89.69;98853.41;5118015;27;20307;-54
2024/02/05 03:01:51;;;;;;;2.97;2.30;;;;;;;5.52;90.55;98838.94;5121238;27;20203;-54
2024/02/05 03:04:19;;;;;;;2.50;1.77;;;;;;;5.47;90.54;98844.94;5123324;27;20269;-56
2024/02/05 03:06:47;;;;;;;3.90;2.10;;;;;;;5.50;90.68;98855.97;5114656;28;20623;-57
2024/02/05 03:09:15;;;;;;;1.83;1.70;;;;;;;5.52;90.35;98844.06;5109285;27;20211;-55
2024/02/05 03:11:43;;;;;;;3.03;1.80;;;;;;;5.52;90.88;98844.06;5107209;28;20692;-56
2024/02/05 03:14:13;;;;;;;2.20;1.73;;;;;;;5.50;90.42;98855.13;5117763;27;20269;-63
2024/02/05 03:16:40;;;;;;;2.03;1.40;;;;;;;5.51;90.42;98831.28;5116063;27;20247;-56
2024/02/05 03:19:08;;;;;;;2.03;1.47;;;;;;;5.43;90.80;98853.50;5113659;27;20196;-57
2024/02/05 03:21:36;;;;;;;3.23;1.67;;;;;;;5.43;91.48;98839.03;5116174;27;20623;-56
2024/02/05 03:24:05;;;;;;;1.60;1.40;;;;;;;5.46;91.47;98833.03;5127881;27;20317;-56
2024/02/05 03:26:33;;;;;;;2.20;1.70;;;;;;;5.47;91.25;98850.06;5117866;27;20208;-55
2024/02/05 03:29:01;;;;;;;4.13;2.10;;;;;;;5.46;91.59;98845.81;5113796;27;20211;-55
2024/02/05 03:31:30;;;;;;;3.20;2.00;;;;;;;5.48;91.48;98826.19;5111674;28;20203;-55
2024/02/05 03:33:58;;;;;;;3.17;2.60;;;;;;;5.48;92.51;98836.41;5119102;27;20203;-55
2024/02/05 03:36:26;;;;;;;3.57;2.03;;;;;;;5.48;92.86;98846.63;5114391;27;20211;-54
2024/02/05 03:38:54;;;;;;;2.10;2.00;;;;;;;5.47;92.73;98855.16;5099958;28;20207;-59
2024/02/05 03:41:22;;;;;;;3.47;2.33;;;;;;;5.46;92.86;98859.44;5114121;27;20205;-57
2024/02/05 03:43:50;;;;;;;2.77;2.30;;;;;;;5.46;94.10;98866.25;5116508;27;20715;-56
2024/02/05 03:46:18;;;;;;;4.80;2.57;;;;;;;5.44;93.35;98855.19;5116053;27;20215;-56
2024/02/05 03:48:54;;;;;;;4.13;2.80;;;;;;;5.48;94.09;98832.16;5122184;27;20261;-56
2024/02/05 03:51:23;;;;;;;3.97;2.57;;;;;;;5.47;93.34;98850.91;5113377;28;20268;-56
2024/02/05 03:53:52;;;;;;;3.00;2.50;;;;;;;5.49;94.10;98861.13;5113308;28;20638;-59
2024/02/05 03:56:20;;;;;;;4.67;2.63;;;;;;;5.48;93.85;98849.19;5113599;28;20200;-55
2024/02/05 03:58:49;;;;;;;2.10;2.00;;;;;;;5.47;94.19;98839.84;5109203;28;20208;-62
2024/02/05 04:01:17;;;;;;;2.93;2.70;;;;;;;5.48;94.29;98838.97;5112873;27;20253;-56
2024/02/05 04:03:45;;;;;;;2.77;2.43;;;;;;;5.50;94.27;98850.03;5114169;27;20603;-56
2024/02/05 04:06:14;;;;;;;3.10;2.37;;;;;;;5.50;93.94;98848.31;5115878;27;20239;-62
2024/02/05 04:08:42;;;;;;;2.50;2.23;;;;;;;5.52;94.87;98836.38;5114886;27;20663;-60
2024/02/05 04:11:10;;;;;;;2.80;2.30;;;;;;;5.51;95.28;98827.00;5116635;27;20227;-57
2024/02/05 04:13:38;;;;;;;2.80;2.43;;;;;;;5.48;94.90;98806.59;5112872;27;20704;-56
2024/02/05 04:16:07;;;;;;;3.30;2.50;;;;;;;5.48;94.79;98815.97;5115125;27;20196;-58
2024/02/05 04:18:35;;;;;;;2.90;2.60;;;;;;;5.45;96.23;98818.56;5108280;28;20275;-56
2024/02/05 04:21:03;;;;;;;3.00;2.70;;;;;;;5.41;96.48;98819.44;5115271;27;20200;-59
2024/02/05 04:23:33;;;;;;;4.63;3.00;;;;;;;5.42;96.88;98814.34;5119005;27;20219;-55
2024/02/05 04:26:03;;;;;;;4.47;2.97;;;;;;;5.42;97.05;98821.16;5114193;27;20551;-53
2024/02/05 04:28:33;;;;;;;3.67;3.17;;;;;;;5.40;96.62;98805.00;5123360;27;20565;-53
2024/02/05 04:31:02;;;;;;;3.40;3.10;;;;;;;5.40;96.80;98813.50;5119501;27;20547;-57
2024/02/05 04:33:30;;;;;;;3.47;2.80;;;;;;;5.40;96.83;98813.50;5112064;28;20206;-52
2024/02/05 04:35:57;;;;;;;3.73;2.50;;;;;;;5.41;96.74;98810.09;5109159;27;20307;-55
2024/02/05 04:38:26;;;;;;;2.70;2.50;;;;;;;5.43;96.02;98797.31;5111084;28;20295;-52
2024/02/05 04:40:55;;;;;;;3.23;2.53;;;;;;;5.44;96.09;98793.88;5115428;27;20697;-54
2024/02/05 04:43:23;;;;;;;2.73;2.53;;;;;;;5.40;95.92;98789.69;5114201;27;20550;-52
2024/02/05 04:45:51;;;;;;;3.73;2.00;;;;;;;5.41;96.27;98792.19;5116602;27;20215;-55
2024/02/05 04:48:21;;;;;;;2.60;2.40;;;;;;;5.42;95.79;98791.38;5122000;27;20223;-55
2024/02/05 04:50:49;;;;;;;4.00;2.53;;;;;;;5.42;94.88;98790.53;5115280;27;20643;-55
2024/02/05 04:53:17;;;;;;;2.40;2.20;;;;;;;5.44;95.43;98788.78;5108560;28;20206;-56
2024/02/05 04:55:45;;;;;;;3.53;2.27;;;;;;;5.43;94.51;98797.31;5117645;27;20195;-63
2024/02/05 04:58:14;;;;;;;3.47;2.00;;;;;;;5.45;94.29;98780.25;5121420;27;20293;-56
2024/02/05 05:00:42;;;;;;;2.57;1.90;;;;;;;5.46;94.72;98794.72;5122865;27;20207;-56
2024/02/05 05:03:10;;;;;;;2.30;2.10;;;;;;;5.47;94.33;98781.94;5118019;27;20204;-56
2024/02/05 05:05:38;;;;;;;2.40;2.20;;;;;;;5.49;93.77;98772.53;5118618;27;20231;-55
2024/02/05 05:08:07;;;;;;;2.73;2.50;;;;;;;5.49;93.55;98795.53;5111279;28;20675;-56
2024/02/05 05:10:35;;;;;;;2.00;1.90;;;;;;;5.52;94.03;98782.75;5109590;28;20196;-56
2024/02/05 05:13:05;;;;;;;2.30;2.10;;;;;;;5.51;93.43;98790.41;5113574;27;20670;-55
2024/02/05 05:15:34;;;;;;;4.00;2.47;;;;;;;5.52;93.42;98782.75;5117378;27;20199;-54
2024/02/05 05:18:05;;;;;;;6.43;2.87;;;;;;;5.52;94.27;98800.63;5106611;27;20386;-55
2024/02/05 05:20:33;;;;;;;3.33;2.60;;;;;;;5.55;94.32;98785.22;5118205;27;20210;-55
2024/02/05 05:23:01;;;;;;;2.87;2.50;;;;;;;5.53;94.26;98783.56;5113780;27;20269;-53
2024/02/05 05:25:29;;;;;;;6.17;2.70;;;;;;;5.53;93.97;98788.69;5118121;27;20216;-53
2024/02/05 05:27:57;;;;;;;3.80;3.00;;;;;;;5.54;93.99;98777.59;5108799;28;20192;-55
2024/02/05 05:30:25;;;;;;;2.90;2.70;;;;;;;5.53;94.06;98771.66;5120618;27;20200;-54
2024/02/05 05:32:54;;;;;;;2.70;2.50;;;;;;;5.52;94.47;98776.75;5109362;28;20220;-64
2024/02/05 05:35:23;;;;;;;2.63;2.43;;;;;;;5.51;94.39;98785.28;5111458;28;20196;-56
2024/02/05 05:37:51;;;;;;;2.70;2.50;;;;;;;5.51;94.30;98770.81;5107294;28;20199;-55
2024/02/05 05:40:19;;;;;;;2.60;2.40;;;;;;;5.51;94.67;98780.19;5111737;28;20658;-54
2024/02/05 05:42:47;;;;;;;2.57;2.37;;;;;;;5.53;93.88;98774.19;5104483;28;20212;-57
2024/02/05 05:45:15;;;;;;;2.80;2.60;;;;;;;5.55;93.71;98776.72;5114686;28;20222;-54
2024/02/05 05:47:44;;;;;;;3.30;2.90;;;;;;;5.57;93.70;98775.00;5109369;27;20199;-54
2024/02/05 05:50:13;;;;;;;2.97;2.77;;;;;;;5.54;93.39;98764.81;5126036;27;20569;-56
2024/02/05 05:52:41;;;;;;;4.83;2.53;;;;;;;5.57;93.63;98782.69;5127194;27;20218;-61
2024/02/05 05:55:10;;;;;;;3.30;3.00;;;;;;;5.60;94.02;98781.78;5119574;27;20280;-58
2024/02/05 05:57:38;;;;;;;2.40;2.20;;;;;;;5.57;93.92;98791.19;5116250;27;20233;-54
2024/02/05 06:00:08;;;;;;;3.07;2.23;;;;;;;5.57;94.45;98795.44;5109964;27;20898;-54
2024/02/05 06:02:36;;;;;;;3.23;2.50;;;;;;;5.60;93.74;98805.63;5114475;27;20196;-57
2024/02/05 06:05:05;;;;;;;3.23;2.43;;;;;;;5.61;93.71;98807.31;5111005;27;20203;-54
2024/02/05 06:07:40;;;;;;;2.53;2.33;;;;;;;5.59;93.57;98793.69;5114005;28;20206;-56
2024/02/05 06:10:09;;;;;;;2.90;2.60;;;;;;;5.58;93.55;98807.34;5115387;28;20203;-54
2024/02/05 06:12:37;;;;;;;2.60;2.40;;;;;;;5.60;93.49;98808.19;5115407;28;20232;-51
2024/02/05 06:15:07;;;;;;;3.20;2.60;;;;;;;5.61;94.36;98793.72;5116683;27;20196;-53
2024/02/05 06:17:35;;;;;;;2.57;2.37;;;;;;;5.62;93.66;98798.78;5113055;27;20231;-56
2024/02/05 06:20:05;;;;;;;2.70;2.50;;;;;;;5.61;93.34;98793.72;5115051;27;20242;-55
2024/02/05 06:22:35;;;;;;;1.80;1.70;;;;;;;5.61;93.52;98822.66;5118974;27;20199;-55
2024/02/05 06:25:06;;;;;;;1.90;1.80;;;;;;;5.62;93.63;98813.28;5126229;27;20208;-57
2024/02/05 06:27:34;;;;;;;2.87;1.97;;;;;;;5.62;93.50;98819.22;5124946;27;20593;-53
2024/02/05 06:30:02;;;;;;;2.23;2.00;;;;;;;5.61;93.18;98792.00;5115679;27;20286;-61
2024/02/05 06:32:30;;;;;;;2.93;1.80;;;;;;;5.63;93.12;98804.75;5107651;27;20265;-53
2024/02/05 06:34:58;;;;;;;1.80;1.70;;;;;;;5.64;92.62;98798.78;5113645;27;20196;-55
2024/02/05 06:37:26;;;;;;;2.30;1.80;;;;;;;5.68;92.67;98803.84;5116893;27;20287;-54
2024/02/05 06:39:54;;;;;;;1.90;1.80;;;;;;;5.69;92.13;98800.41;5110779;27;20298;-52
2024/02/05 06:42:23;;;;;;;1.60;1.47;;;;;;;5.70;91.90;98807.19;5104619;27;20304;-53
2024/02/05 06:44:51;;;;;;;1.50;1.40;;;;;;;5.74;92.12;98811.44;5115341;27;20206;-63
2024/02/05 06:47:19;;;;;;;1.30;1.23;;;;;;;5.76;92.14;98822.47;5115013;27;20257;-58
2024/02/05 06:49:48;;;;;;;2.10;1.77;;;;;;;5.80;92.18;98813.06;5115205;27;20200;-56
2024/02/05 06:52:16;;;;;;;2.27;2.07;;;;;;;5.83;91.59;98807.91;5114913;27;20717;-59
2024/02/05 06:54:44;;;;;;;2.00;1.80;;;;;;;5.84;92.00;98813.88;5115301;27;20556;-63
2024/02/05 06:57:12;;;;;;;2.20;1.87;;;;;;;5.82;91.59;98824.13;5110282;28;20212;-58
2024/02/05 06:59:42;;;;;;;1.40;1.30;;;;;;;5.86;91.67;98832.59;5111893;27;20211;-61
2024/02/05 07:02:09;;;;;;;1.17;1.07;;;;;;;5.87;90.77;98836.84;5110913;27;20272;-59
2024/02/05 07:04:38;;;;;;;1.23;1.13;;;;;;;5.89;89.81;98827.44;5121068;27;20659;-58
2024/02/05 07:07:05;;;;;;;1.10;1.03;;;;;;;5.91;89.07;98818.88;5115179;27;20338;-58
2024/02/05 07:09:35;;;;;;;1.00;0.90;;;;;;;5.97;89.34;98841.03;5113882;27;20211;-57
2024/02/05 07:12:03;;;;;;;1.00;0.80;;;;;;;5.97;88.30;98839.31;5114609;27;20619;-58
2024/02/05 07:14:31;;;;;;;0.90;0.90;;;;;;;6.03;88.10;98840.91;5109725;27;20753;-56
2024/02/05 07:17:00;;;;;;;1.07;0.80;;;;;;;6.06;87.37;98825.53;5111401;28;20735;-58
2024/02/05 07:19:28;;;;;;;1.93;1.10;;;;;;;6.12;86.59;98832.31;5110219;28;20553;-59
2024/02/05 07:21:56;;;;;;;0.80;0.80;;;;;;;6.15;85.78;98848.47;5117827;27;20642;-57
2024/02/05 07:24:24;;;;;;;0.70;0.70;;;;;;;6.18;86.16;98830.50;5117102;27;20208;-56
2024/02/05 07:26:52;;;;;;;1.17;1.10;;;;;;;6.24;85.43;98845.75;5113336;27;20216;-54
2024/02/05 07:29:20;;;;;;;3.27;0.70;;;;;;;6.26;85.63;98850.88;5124763;27;20653;-56
2024/02/05 07:31:48;;;;;;;0.73;0.73;;;;;;;6.28;84.81;98847.41;5119344;27;20714;-56
2024/02/05 07:34:17;;;;;;;1.73;0.83;;;;;;;6.33;84.79;98859.28;5104392;27;20246;-57
2024/02/05 07:36:45;;;;;;;0.70;0.70;;;;;;;6.37;84.41;98853.25;5119478;27;20200;-57
2024/02/05 07:39:13;;;;;;;1.13;0.70;;;;;;;6.39;84.02;98866.88;5114504;27;20204;-57
2024/02/05 07:41:41;;;;;;;0.70;0.57;;;;;;;6.40;83.84;98860.91;5112584;27;20258;-58
2024/02/05 07:44:09;;;;;;;0.70;0.50;;;;;;;6.43;83.58;98845.50;5107330;27;20211;-57
2024/02/05 07:46:37;;;;;;;0.87;0.80;;;;;;;6.45;82.54;98867.66;5119222;27;20293;-58
2024/02/05 07:49:05;;;;;;;0.50;0.50;;;;;;;6.54;82.10;98889.69;5109510;28;20203;-56
2024/02/05 07:51:34;;;;;;;0.80;0.70;;;;;;;6.59;79.99;98879.41;5126513;27;20298;-59
2024/02/05 07:54:02;;;;;;;0.53;0.53;;;;;;;6.59;79.91;98872.59;5120250;27;20577;-57
2024/02/05 07:56:30;;;;;;;0.70;0.70;;;;;;;6.60;80.27;98863.19;5101369;27;20293;-55
2024/02/05 07:58:59;;;;;;;0.60;0.60;;;;;;;6.58;80.04;98868.31;5105881;27;20200;-56
2024/02/05 08:01:26;;;;;;;1.17;0.67;;;;;;;6.56;80.39;98887.97;5116437;27;20196;-58
2024/02/05 08:03:54;;;;;;;0.87;0.70;;;;;;;6.56;80.55;98903.34;5110894;27;20200;-56
2024/02/05 08:06:23;;;;;;;1.50;0.70;;;;;;;6.53;81.28;98909.34;5112166;27;20200;-58
2024/02/05 08:08:52;;;;;;;1.10;0.70;;;;;;;6.59;80.70;98887.06;5117020;27;20279;-59
2024/02/05 08:11:20;;;;;;;0.70;0.63;;;;;;;6.66;81.51;98883.56;5114170;27;20212;-57
2024/02/05 08:13:49;;;;;;;0.60;0.60;;;;;;;6.72;80.71;98901.41;5117212;27;20261;-57
2024/02/05 08:16:17;;;;;;;0.90;0.90;;;;;;;6.78;80.00;98886.81;5116068;27;20225;-56
2024/02/05 08:18:45;;;;;;;0.57;0.53;;;;;;;6.75;79.08;98883.44;5115122;27;20212;-57
2024/02/05 08:21:13;;;;;;;0.47;0.47;;;;;;;6.81;78.99;98911.50;5116849;27;20282;-59
2024/02/05 08:23:41;;;;;;;0.83;0.70;;;;;;;6.82;78.57;98891.88;5111536;27;20543;-58
2024/02/05 08:26:10;;;;;;;0.97;0.50;;;;;;;6.85;77.70;98897.81;5119811;27;20203;-58
2024/02/05 08:28:41;;;;;;;0.93;0.60;;;;;;;6.86;77.60;98896.09;5116000;27;20224;-56
2024/02/05 08:31:09;;;;;;;0.73;0.60;;;;;;;6.86;77.49;98901.22;5112996;27;20287;-57
2024/02/05 08:33:37;;;;;;;1.13;0.70;;;;;;;6.89;76.71;98903.72;5125519;27;20580;-59
2024/02/05 08:36:06;;;;;;;1.00;0.80;;;;;;;6.91;77.27;98922.44;5120919;27;20559;-56
2024/02/05 08:38:34;;;;;;;0.80;0.60;;;;;;;6.94;77.04;98933.50;5101814;27;20200;-57
2024/02/05 08:41:02;;;;;;;0.90;0.63;;;;;;;6.97;75.69;98914.69;5110606;28;20196;-58
2024/02/05 08:43:31;;;;;;;0.70;0.63;;;;;;;7.01;74.98;98912.06;5108208;27;20592;-56
2024/02/05 08:45:59;;;;;;;0.60;0.53;;;;;;;7.07;75.20;98918.81;5109587;27;20208;-58
2024/02/05 08:48:27;;;;;;;0.90;0.60;;;;;;;7.07;74.06;98931.63;5113339;28;20265;-58
2024/02/05 08:50:55;;;;;;;0.83;0.60;;;;;;;7.09;74.57;98923.91;5114236;27;20196;-59
2024/02/05 08:53:23;;;;;;;0.90;0.70;;;;;;;7.06;73.84;98944.44;5110185;27;20226;-56
2024/02/05 08:55:51;;;;;;;0.43;0.43;;;;;;;7.03;75.89;98940.19;5114899;27;20228;-58
2024/02/05 08:58:19;;;;;;;1.40;0.47;;;;;;;7.04;73.81;98928.25;5110090;27;20601;-59
2024/02/05 09:00:48;;;;;;;0.80;0.50;;;;;;;7.05;73.67;98946.16;5107246;27;20647;-59
2024/02/05 09:03:17;;;;;;;0.87;0.47;;;;;;;7.12;73.73;98950.31;5105182;27;20316;-60
2024/02/05 09:05:47;;;;;;;0.97;0.47;;;;;;;7.22;74.02;98962.13;5115149;27;20926;-56
2024/02/05 09:08:15;;;;;;;0.70;0.50;;;;;;;7.21;72.24;98924.53;5108124;27;20224;-54
2024/02/05 09:10:43;;;;;;;0.90;0.60;;;;;;;7.22;72.20;98954.44;5112622;27;20200;-58
2024/02/05 09:13:11;;;;;;;2.63;0.70;;;;;;;7.19;72.99;98967.28;5111953;27;20228;-59
2024/02/05 09:15:39;;;;;;;0.63;0.60;;;;;;;7.22;74.03;98974.94;5111909;27;20253;-58
2024/02/05 09:18:09;;;;;;;1.37;0.80;;;;;;;7.24;73.07;98968.03;5112676;27;20728;-65
2024/02/05 09:20:37;;;;;;;2.10;0.90;;;;;;;7.25;73.34;98977.44;5114544;27;20207;-57
2024/02/05 09:23:06;;;;;;;1.70;0.60;;;;;;;7.32;74.30;98987.56;5113787;27;20210;-58
2024/02/05 09:25:34;;;;;;;0.93;0.70;;;;;;;7.29;73.00;98988.50;5119162;27;20607;-57
2024/02/05 09:28:02;;;;;;;0.77;0.67;;;;;;;7.32;73.15;98985.84;5109146;28;20223;-58
2024/02/05 09:30:31;;;;;;;0.80;0.80;;;;;;;7.34;73.65;98975.59;5116089;27;20200;-61
2024/02/05 09:32:58;;;;;;;2.63;0.60;;;;;;;7.34;73.66;98983.28;5118470;27;20301;-57
2024/02/05 09:35:28;;;;;;;1.00;0.77;;;;;;;7.33;73.21;98977.31;5117123;27;20287;-59
2024/02/05 09:37:56;;;;;;;1.13;0.80;;;;;;;7.31;73.20;98985.91;5116200;28;20639;-60
2024/02/05 09:40:25;;;;;;;2.00;0.73;;;;;;;7.25;73.27;98980.00;5118428;27;20199;-58
2024/02/05 09:42:53;;;;;;;1.27;0.70;;;;;;;7.23;73.50;98983.44;5121602;28;20994;-57
2024/02/05 09:45:24;;;;;;;1.27;0.90;;;;;;;7.24;72.97;98990.25;5116824;28;20257;-61
2024/02/05 09:47:52;;;;;;;0.87;0.80;;;;;;;7.21;74.52;98992.84;5120170;27;20550;-58
2024/02/05 09:50:26;;;;;;;1.10;0.80;;;;;;;7.20;75.16;98988.63;5111184;28;20780;-56
2024/02/05 09:52:56;;;;;;;2.20;1.20;;;;;;;7.17;73.77;98979.25;5108386;28;20526;-57
2024/02/05 09:55:24;;;;;;;3.03;0.70;;;;;;;7.17;74.44;99010.00;5109195;28;20214;-63
2024/02/05 09:57:54;;;;;;;3.10;0.80;;;;;;;7.13;74.93;99002.38;5110792;28;20725;-57
2024/02/05 10:00:22;;;;;;;1.43;1.30;;;;;;;7.16;73.80;99002.34;5109710;28;20299;-64
2024/02/05 10:02:50;;;;;;;1.20;0.70;;;;;;;7.18;74.61;98991.22;5115342;28;20242;-57
2024/02/05 10:05:24;;;;;;;1.13;0.73;;;;;;;7.22;74.18;98974.09;5112258;28;20204;-57
2024/02/05 10:07:55;;;;;;;1.80;0.90;;;;;;;7.23;72.36;98979.16;5123127;28;20253;-56
2024/02/05 10:10:23;;;;;;;1.83;1.20;;;;;;;7.29;72.18;98985.06;5122238;27;20192;-57
2024/02/05 10:12:54;;;;;;;1.87;0.70;;;;;;;7.30;72.76;98984.22;5110616;28;20196;-60
2024/02/05 10:15:22;;;;;;;1.50;0.90;;;;;;;7.21;71.89;98960.41;5112331;28;20651;-60
2024/02/05 10:17:50;;;;;;;1.83;0.90;;;;;;;7.12;73.00;98991.28;5114056;28;20240;-59
2024/02/05 10:20:18;;;;;;;0.90;0.63;;;;;;;7.05;73.17;98987.13;5115505;28;20195;-61
2024/02/05 10:22:47;;;;;;;3.23;1.20;;;;;;;6.90;74.36;98989.91;5113400;28;20215;-58
2024/02/05 10:25:16;;;;;;;2.57;0.87;;;;;;;6.86;74.93;98983.97;5113518;28;20199;-60
2024/02/05 10:27:44;;;;;;;0.80;0.57;;;;;;;6.82;75.52;98984.06;5111506;28;20220;-59
2024/02/05 10:30:17;;;;;;;1.43;0.67;;;;;;;6.85;75.82;98971.19;5115945;28;20569;-59
2024/02/05 10:32:45;;;;;;;2.17;1.10;;;;;;;6.94;75.54;98976.19;5113897;28;20684;-59
2024/02/05 10:35:16;;;;;;;1.90;0.90;;;;;;;7.03;74.75;98970.91;5113721;27;20204;-55
2024/02/05 10:37:44;;;;;;;0.97;0.87;;;;;;;7.13;74.69;98977.59;5116158;27;20196;-57
2024/02/05 10:40:12;;;;;;;1.30;0.80;;;;;;;7.21;74.68;98970.66;5117057;27;20211;-59
2024/02/05 10:42:42;;;;;;;2.83;0.83;;;;;;;7.21;73.53;98975.78;5116831;27;20276;-55
2024/02/05 10:45:12;;;;;;;1.77;0.83;;;;;;;7.30;73.43;98958.59;5115605;27;20677;-60
2024/02/05 10:47:41;;;;;;;1.73;0.80;;;;;;;7.36;72.13;98958.47;5115735;27;20288;-60
2024/02/05 10:50:13;;;;;;;3.53;0.97;;;;;;;7.43;71.79;98971.16;5113161;28;20208;-60
2024/02/05 10:52:42;;;;;;;2.90;0.90;;;;;;;7.46;71.54;98973.69;5114384;27;20207;-59
2024/02/05 10:55:12;;;;;;;3.13;1.10;;;;;;;7.48;69.24;98963.41;5115506;27;20207;-59
2024/02/05 10:57:44;;;;;;;2.33;1.17;;;;;;;7.45;70.62;98968.59;5113185;27;20277;-59
2024/02/05 11:00:14;;;;;;;0.87;0.87;;;;;;;7.43;71.09;98968.59;5109046;27;20270;-58
2024/02/05 11:02:46;;;;;;;0.80;0.80;;;;;;;7.45;70.77;98978.84;5115543;27;20580;-59
2024/02/05 11:05:15;;;;;;;1.03;0.90;;;;;;;7.46;72.66;98975.41;5111579;27;20226;-60
2024/02/05 11:07:49;;;;;;;1.63;1.00;;;;;;;7.53;71.89;98984.69;5123754;27;20211;-60
2024/02/05 11:10:22;;;;;;;1.37;0.80;;;;;;;7.54;72.92;98972.72;5117357;27;20244;-58
2024/02/05 11:12:59;;;;;;;0.67;0.67;;;;;;;7.48;71.50;98976.22;5123104;27;20203;-58
2024/02/05 11:15:30;;;;;;;1.80;1.00;;;;;;;7.48;71.06;98976.22;5114601;27;20204;-59
2024/02/05 11:18:00;;;;;;;2.57;0.90;;;;;;;7.53;71.38;98979.56;5117620;27;20296;-60
2024/02/05 11:20:29;;;;;;;3.30;0.73;;;;;;;7.61;71.04;98982.00;5122534;27;20265;-58
2024/02/05 11:22:59;;;;;;;1.10;1.00;;;;;;;7.61;70.34;98964.03;5114900;27;20265;-60
2024/02/05 11:25:27;;;;;;;2.57;0.97;;;;;;;7.54;69.21;98962.44;5115252;27;20664;-59
2024/02/05 11:27:57;;;;;;;2.67;1.40;;;;;;;7.51;69.12;98978.72;5121278;27;20223;-58
2024/02/05 11:30:29;;;;;;;1.13;1.00;;;;;;;7.52;70.69;98990.69;5115104;27;20295;-59
2024/02/05 11:32:57;;;;;;;1.30;0.80;;;;;;;7.47;71.04;98988.22;5115984;27;20203;-60
2024/02/05 11:35:28;;;;;;;1.03;0.80;;;;;;;7.53;70.32;98997.50;5117746;27;20215;-62
2024/02/05 11:38:05;;;;;;;3.13;0.97;;;;;;;7.48;68.70;98984.75;5120267;27;20195;-60
2024/02/05 11:40:33;;;;;;;1.03;0.70;;;;;;;7.44;70.71;98982.28;5116265;27;20263;-61
2024/02/05 11:43:07;;;;;;;2.47;0.60;;;;;;;7.46;69.45;98990.78;5127580;27;20705;-53
2024/02/05 11:45:36;;;;;;;0.63;0.53;;;;;;;7.46;67.97;98972.84;5116139;27;20568;-54
2024/02/05 11:48:07;;;;;;;2.80;0.93;;;;;;;7.45;67.21;98994.22;5115307;27;20214;-57